Mount Rainier Natl Park, Washington
Current Conditions -  °F | °C
As of 5:58 AM on Thursday 18 Dec 2014 (Local Time) from KTCM Reporting Station
Scattered Clouds Scattered Clouds  
Wind Chill: 41°   Ceiling: Unl
Heat Index: 41°   Visibility: 9mi
Dew Point: 41°   Wind: 0mph
Humidity: 100%   Direction: NA
Pressure: 29.93"   Gusts: NA
Location:  46.87°N, 121.72°W
Report Text: KTCM 181358Z AUTO 00000KT 9SM SCT070 05/05 A2993 RMK AO2 SLP141 T00500050 $
Loading
Personal Weather Stations






























Interactive Weather Map New forecast layout! Learn more

10-Day Weather Forecast

Advertisements
Track Severe Weather on mobile